createdAt,value
2019-06-01T00:01:27.966Z,18.42
2019-06-01T00:03:56.169Z,17.42
2019-06-01T00:06:24.382Z,18.00
2019-06-01T00:08:52.698Z,19.98
2019-06-01T00:11:20.917Z,16.95
2019-06-01T00:13:49.675Z,19.05
2019-06-01T00:16:17.937Z,20.32
2019-06-01T00:18:46.154Z,19.87
2019-06-01T00:21:14.387Z,18.37
2019-06-01T00:23:42.599Z,18.53
2019-06-01T00:26:10.818Z,18.23
2019-06-01T00:28:39.090Z,19.50
2019-06-01T00:31:07.307Z,15.90
2019-06-01T00:33:35.543Z,21.90
2019-06-01T00:36:03.762Z,15.10
2019-06-01T00:38:31.968Z,18.00
2019-06-01T00:41:00.204Z,20.00
2019-06-01T00:43:28.725Z,20.00
2019-06-01T00:45:56.953Z,18.67
2019-06-01T00:48:25.190Z,14.70
2019-06-01T00:50:53.401Z,20.05
2019-06-01T00:53:21.673Z,19.67
2019-06-01T00:55:49.902Z,19.02
2019-06-01T00:58:18.120Z,18.45
2019-06-01T01:00:47.790Z,19.62
2019-06-01T01:03:16.674Z,16.03
2019-06-01T01:05:44.907Z,18.10
2019-06-01T01:08:13.123Z,20.30
2019-06-01T01:10:41.325Z,17.95
2019-06-01T01:13:23.253Z,21.77
2019-06-01T01:15:51.487Z,23.20
2019-06-01T01:18:19.695Z,21.25
2019-06-01T01:20:47.925Z,18.15
2019-06-01T01:23:16.148Z,20.20
2019-06-01T01:25:44.364Z,22.60
2019-06-01T01:28:12.573Z,19.95
2019-06-01T01:30:41.529Z,22.60
2019-06-01T01:33:09.788Z,22.52
2019-06-01T01:35:37.983Z,20.50
2019-06-01T01:38:06.219Z,21.37
2019-06-01T01:40:34.425Z,25.02
2019-06-01T01:43:02.658Z,19.73
2019-06-01T01:45:30.877Z,22.25
2019-06-01T01:47:59.279Z,21.85
2019-06-01T01:50:27.765Z,20.65
2019-06-01T01:52:57.122Z,21.23
2019-06-01T01:55:25.573Z,23.18
2019-06-01T01:57:53.796Z,22.67
2019-06-01T02:00:46.817Z,22.82
2019-06-01T02:03:15.061Z,21.47
2019-06-01T02:05:43.347Z,21.85
2019-06-01T02:08:11.612Z,17.90
2019-06-01T02:10:39.817Z,17.27
2019-06-01T02:13:08.088Z,19.02
2019-06-01T02:15:36.634Z,17.60
2019-06-01T02:18:05.505Z,17.67
2019-06-01T02:20:33.793Z,21.43
2019-06-01T02:23:03.160Z,19.40
2019-06-01T02:25:31.669Z,18.07
2019-06-01T02:28:01.063Z,20.02
2019-06-01T02:30:29.939Z,18.30
2019-06-01T02:32:58.810Z,19.70
2019-06-01T02:35:28.085Z,16.67
2019-06-01T02:37:56.503Z,16.40
2019-06-01T02:40:24.806Z,20.70
2019-06-01T02:42:54.911Z,19.35
2019-06-01T02:45:23.629Z,18.35
2019-06-01T02:47:51.947Z,17.92
2019-06-01T02:50:20.174Z,18.20
2019-06-01T02:52:48.424Z,16.50
2019-06-01T02:55:18.250Z,16.40
2019-06-01T02:57:46.466Z,15.68
2019-06-01T03:00:16.954Z,16.07
2019-06-01T03:02:45.169Z,17.85
2019-06-01T03:05:13.379Z,16.70
2019-06-01T03:07:42.588Z,16.48
2019-06-01T03:10:11.052Z,18.25
2019-06-01T03:12:43.935Z,15.88
2019-06-01T03:15:12.632Z,14.95
2019-06-01T03:17:43.873Z,17.32
2019-06-01T03:20:12.079Z,18.97
2019-06-01T03:22:41.844Z,15.75
2019-06-01T03:25:10.056Z,17.75
2019-06-01T03:27:39.232Z,12.78
2019-06-01T03:30:09.795Z,16.93
2019-06-01T03:32:38.127Z,13.85
2019-06-01T03:35:06.787Z,15.90
2019-06-01T03:37:34.967Z,16.15
2019-06-01T03:40:06.818Z,16.17
2019-06-01T03:42:34.642Z,14.70
2019-06-01T03:45:03.473Z,16.82
2019-06-01T03:47:31.655Z,15.78
2019-06-01T03:50:00.696Z,18.30
2019-06-01T03:52:28.971Z,16.93
2019-06-01T03:54:57.175Z,14.95
2019-06-01T03:57:25.382Z,12.73
2019-06-01T03:59:53.586Z,11.90
2019-06-01T04:02:32.780Z,17.05
2019-06-01T04:04:51.731Z,14.00
2019-06-01T04:07:19.986Z,13.45
2019-06-01T04:09:48.220Z,14.15
2019-06-01T04:12:16.427Z,15.13
2019-06-01T04:14:44.625Z,13.80
2019-06-01T04:17:12.849Z,16.63
2019-06-01T04:19:41.056Z,13.03
2019-06-01T04:22:10.165Z,13.80
2019-06-01T04:24:38.366Z,12.88
2019-06-01T04:27:06.594Z,14.87
2019-06-01T04:29:34.828Z,14.18
2019-06-01T04:32:03.029Z,11.20
2019-06-01T04:34:31.242Z,12.58
2019-06-01T04:36:59.442Z,12.95
2019-06-01T04:39:27.645Z,12.63
2019-06-01T04:41:55.860Z,14.25
2019-06-01T04:44:24.069Z,15.43
2019-06-01T04:46:52.303Z,12.28
2019-06-01T04:49:20.502Z,12.82
2019-06-01T04:51:48.708Z,14.67
2019-06-01T04:54:16.965Z,14.00
2019-06-01T04:56:45.162Z,18.60
2019-06-01T04:59:13.550Z,14.33
2019-06-01T05:01:41.749Z,14.05
2019-06-01T05:04:11.091Z,16.27
2019-06-01T05:06:39.369Z,15.20
2019-06-01T05:09:09.329Z,15.58
2019-06-01T05:11:37.591Z,14.07
2019-06-01T05:14:05.808Z,15.37
2019-06-01T05:16:34.020Z,15.95
2019-06-01T05:19:02.250Z,19.05
2019-06-01T05:21:30.490Z,18.50
2019-06-01T05:23:58.691Z,15.45
2019-06-01T05:26:27.291Z,14.20
2019-06-01T05:28:55.522Z,15.28
2019-06-01T05:31:25.300Z,15.08
2019-06-01T05:33:53.627Z,19.45
2019-06-01T05:36:21.941Z,18.65
2019-06-01T05:38:50.147Z,17.27
2019-06-01T05:41:19.915Z,16.50
2019-06-01T05:43:48.255Z,16.27
2019-06-01T05:46:16.476Z,17.85
2019-06-01T05:48:44.689Z,16.97
2019-06-01T05:51:15.558Z,18.92
2019-06-01T05:53:42.893Z,18.20
2019-06-01T05:56:11.127Z,18.53
2019-06-01T05:58:40.515Z,19.37
2019-06-01T06:01:10.304Z,16.67
2019-06-01T06:03:40.643Z,16.77
2019-06-01T06:06:08.557Z,18.80
2019-06-01T06:08:36.826Z,17.00
2019-06-01T06:11:05.019Z,23.23
2019-06-01T06:13:33.222Z,17.55
2019-06-01T06:16:01.462Z,20.95
2019-06-01T06:18:29.667Z,19.98
2019-06-01T06:20:57.970Z,21.33
2019-06-01T06:23:26.175Z,19.55
2019-06-01T06:25:54.400Z,17.15
2019-06-01T06:28:23.245Z,18.15
2019-06-01T06:30:52.611Z,18.35
2019-06-01T06:33:21.454Z,19.40
2019-06-01T06:35:49.637Z,17.00
2019-06-01T06:38:17.912Z,18.60
2019-06-01T06:40:46.084Z,16.25
2019-06-01T06:43:20.578Z,16.70
2019-06-01T06:45:44.255Z,17.23
2019-06-01T06:48:12.652Z,16.15
2019-06-01T06:50:40.987Z,15.53
2019-06-01T06:53:24.224Z,16.73
2019-06-01T06:55:39.155Z,15.50
2019-06-01T06:58:07.463Z,16.62
2019-06-01T07:00:35.669Z,16.20
2019-06-01T07:03:03.939Z,15.60
2019-06-01T07:05:32.148Z,16.20
2019-06-01T07:08:00.353Z,20.77
2019-06-01T07:10:28.566Z,19.62
2019-06-01T07:12:56.803Z,17.60
2019-06-01T07:15:25.543Z,17.25
2019-06-01T07:17:53.799Z,17.57
2019-06-01T07:20:22.013Z,18.05
2019-06-01T07:22:50.237Z,16.73
2019-06-01T07:25:19.590Z,18.45
2019-06-01T07:27:47.940Z,16.57
2019-06-01T07:30:16.197Z,15.75
2019-06-01T07:32:44.440Z,14.70
2019-06-01T07:35:12.658Z,15.70
2019-06-01T07:37:40.872Z,13.28
2019-06-01T07:40:13.294Z,13.72
2019-06-01T07:42:39.107Z,14.28
2019-06-01T07:45:07.814Z,14.95
2019-06-01T07:47:36.044Z,14.80
2019-06-01T07:50:07.101Z,13.80
2019-06-01T07:52:35.297Z,17.98
2019-06-01T07:55:03.836Z,13.45
2019-06-01T07:57:32.042Z,12.93
2019-06-01T08:00:00.277Z,13.72
2019-06-01T08:02:30.384Z,14.45
2019-06-01T08:04:58.489Z,13.20
2019-06-01T08:07:27.696Z,15.25
2019-06-01T08:09:56.021Z,14.25
2019-06-01T08:12:25.455Z,12.85
2019-06-01T08:14:53.731Z,15.98
2019-06-01T08:17:22.139Z,15.40
2019-06-01T08:19:51.999Z,13.65
2019-06-01T08:22:20.343Z,13.72
2019-06-01T08:24:48.584Z,15.53
2019-06-01T08:27:16.822Z,15.60
2019-06-01T08:29:45.045Z,12.95
2019-06-01T08:32:13.282Z,13.63
2019-06-01T08:34:41.481Z,16.23
2019-06-01T08:37:09.689Z,12.78
2019-06-01T08:39:37.944Z,13.93
2019-06-01T08:42:06.335Z,15.20
2019-06-01T08:44:34.556Z,15.88
2019-06-01T08:47:02.770Z,15.08
2019-06-01T08:49:32.372Z,14.03
2019-06-01T08:52:00.853Z,13.03
2019-06-01T08:54:30.298Z,12.23
2019-06-01T08:56:58.595Z,26.12
2019-06-01T08:59:26.777Z,11.97
2019-06-01T09:01:55.012Z,14.47
2019-06-01T09:04:24.498Z,16.95
2019-06-01T09:06:52.797Z,13.58
2019-06-01T09:09:21.026Z,14.68
2019-06-01T09:11:49.225Z,12.90
2019-06-01T09:14:17.432Z,13.37
2019-06-01T09:16:45.674Z,13.65
2019-06-01T09:19:13.920Z,12.07
2019-06-01T09:21:42.095Z,13.62
2019-06-01T09:24:10.329Z,15.58
2019-06-01T09:26:38.572Z,13.43
2019-06-01T09:29:06.807Z,11.33
2019-06-01T09:31:36.563Z,13.30
2019-06-01T09:34:04.911Z,11.45
2019-06-01T09:36:33.131Z,12.65
2019-06-01T09:39:01.345Z,13.45
2019-06-01T09:41:30.499Z,10.10
2019-06-01T09:43:59.854Z,11.88
2019-06-01T09:46:28.871Z,12.05
2019-06-01T09:48:57.151Z,12.55
2019-06-01T09:51:25.371Z,11.65
2019-06-01T09:53:53.595Z,10.70
2019-06-01T09:56:21.810Z,10.55
2019-06-01T09:58:50.058Z,10.40
2019-06-01T10:01:18.269Z,10.25
2019-06-01T10:03:46.532Z,12.33
2019-06-01T10:06:14.748Z,11.70
2019-06-01T10:08:42.951Z,12.15
2019-06-01T10:11:11.168Z,9.67
2019-06-01T10:13:39.383Z,12.63
2019-06-01T10:16:07.589Z,9.88
2019-06-01T10:18:37.018Z,11.55
2019-06-01T10:21:05.306Z,11.78
2019-06-01T10:23:34.445Z,8.38
2019-06-01T10:26:02.975Z,9.28
2019-06-01T10:28:31.559Z,10.85
2019-06-01T10:30:59.850Z,7.63
2019-06-01T10:33:28.092Z,7.60
2019-06-01T10:35:56.315Z,10.90
2019-06-01T10:38:24.541Z,9.20
2019-06-01T10:40:52.735Z,8.85
2019-06-01T10:43:21.000Z,12.93
2019-06-01T10:45:49.250Z,8.50
2019-06-01T10:48:17.447Z,10.98
2019-06-01T10:50:45.702Z,12.78
2019-06-01T10:53:13.910Z,8.30
2019-06-01T10:55:42.467Z,8.85
2019-06-01T10:58:10.969Z,8.53
2019-06-01T11:00:46.735Z,8.08
2019-06-01T11:03:09.117Z,9.23
2019-06-01T11:05:37.318Z,10.50
2019-06-01T11:08:05.535Z,7.50
2019-06-01T11:10:34.860Z,8.10
2019-06-01T11:13:03.185Z,7.33
2019-06-01T11:15:31.393Z,9.28
2019-06-01T11:17:59.605Z,8.30
2019-06-01T11:20:27.807Z,9.85
2019-06-01T11:22:56.025Z,7.37
2019-06-01T11:25:24.239Z,8.40
2019-06-01T11:27:52.457Z,8.30
2019-06-01T11:30:20.659Z,8.78
2019-06-01T11:32:48.873Z,7.00
2019-06-01T11:35:17.108Z,9.57
2019-06-01T11:37:45.341Z,6.65
2019-06-01T11:40:13.540Z,7.62
2019-06-01T11:42:42.967Z,7.80
2019-06-01T11:45:11.325Z,8.65
2019-06-01T11:47:40.743Z,8.63
2019-06-01T11:50:09.131Z,6.03
2019-06-01T11:52:37.331Z,6.87
2019-06-01T11:55:08.346Z,6.97
2019-06-01T11:57:37.484Z,8.00
2019-06-01T12:00:11.879Z,7.80
2019-06-01T12:02:40.092Z,9.45
2019-06-01T12:05:08.838Z,6.73
2019-06-01T12:07:37.677Z,6.47
2019-06-01T12:10:06.555Z,6.90
2019-06-01T12:12:35.974Z,6.22
2019-06-01T12:15:05.154Z,6.17
2019-06-01T12:17:33.355Z,7.97
2019-06-01T12:20:01.652Z,7.35
2019-06-01T12:22:29.954Z,7.60
2019-06-01T12:24:58.138Z,6.08
2019-06-01T12:27:26.342Z,6.87
2019-06-01T12:29:54.600Z,5.62
2019-06-01T12:32:22.813Z,6.27
2019-06-01T12:34:51.011Z,5.70
2019-06-01T12:37:36.202Z,7.75
2019-06-01T12:39:51.215Z,6.75
2019-06-01T12:42:19.161Z,7.83
2019-06-01T12:44:47.821Z,7.00
2019-06-01T12:47:16.109Z,6.20
2019-06-01T12:49:44.273Z,6.25
2019-06-01T12:52:12.510Z,9.58
2019-06-01T12:54:40.769Z,5.78
2019-06-01T12:57:09.089Z,6.15
2019-06-01T12:59:37.372Z,7.55
2019-06-01T13:02:05.507Z,5.30
2019-06-01T13:04:33.711Z,7.97
2019-06-01T13:07:01.925Z,5.47
2019-06-01T13:09:30.344Z,5.87
2019-06-01T13:11:58.551Z,6.17
2019-06-01T13:14:26.770Z,7.30
2019-06-01T13:17:06.339Z,5.90
2019-06-01T13:19:24.986Z,8.18
2019-06-01T13:21:53.194Z,6.75
2019-06-01T13:24:21.474Z,6.28
2019-06-01T13:26:50.149Z,5.78
2019-06-01T13:29:18.564Z,8.47
2019-06-01T13:31:48.143Z,7.33
2019-06-01T13:34:16.457Z,5.87
2019-06-01T13:36:44.730Z,6.25
2019-06-01T13:39:12.950Z,6.75
2019-06-01T13:41:41.211Z,6.72
2019-06-01T13:44:09.435Z,6.67
2019-06-01T13:46:37.663Z,6.75
2019-06-01T13:49:05.868Z,5.93
2019-06-01T13:51:34.151Z,6.00
2019-06-01T13:54:02.400Z,6.62
2019-06-01T13:56:31.414Z,6.00
2019-06-01T13:58:59.901Z,4.83
2019-06-01T14:01:28.138Z,5.87
2019-06-01T14:03:56.356Z,5.12
2019-06-01T14:06:24.570Z,6.37
2019-06-01T14:08:53.195Z,5.13
2019-06-01T14:11:21.509Z,5.33
2019-06-01T14:13:49.938Z,5.65
2019-06-01T14:16:18.157Z,6.95
2019-06-01T14:18:47.575Z,6.67
2019-06-01T14:21:15.974Z,7.17
2019-06-01T14:23:45.662Z,7.40
2019-06-01T14:26:14.045Z,7.17
2019-06-01T14:28:42.290Z,8.78
2019-06-01T14:31:10.528Z,12.78
2019-06-01T14:33:38.827Z,9.33
2019-06-01T14:36:07.108Z,8.73
2019-06-01T14:38:46.649Z,11.45
2019-06-01T14:41:05.324Z,10.63
2019-06-01T14:43:33.534Z,10.88
2019-06-01T14:46:01.754Z,14.20
2019-06-01T14:48:30.092Z,11.33
2019-06-01T14:50:58.304Z,13.62
2019-06-01T14:53:26.530Z,13.13
2019-06-01T14:55:55.807Z,9.75
2019-06-01T14:58:24.085Z,9.08
2019-06-01T15:00:52.702Z,11.45
2019-06-01T15:03:20.910Z,14.43
2019-06-01T15:05:50.261Z,10.38
2019-06-01T15:08:18.524Z,12.60
2019-06-01T15:10:46.734Z,15.05
2019-06-01T15:13:14.969Z,10.37
2019-06-01T15:15:43.183Z,13.25
2019-06-01T15:18:11.424Z,12.50
2019-06-01T15:20:39.639Z,11.40
2019-06-01T15:23:07.868Z,12.43
2019-06-01T15:25:36.073Z,11.15
2019-06-01T15:28:04.370Z,11.00
2019-06-01T15:30:32.625Z,11.45
2019-06-01T15:33:00.851Z,12.43
2019-06-01T15:35:29.084Z,11.45
2019-06-01T15:38:01.478Z,11.50
2019-06-01T15:40:27.253Z,14.28
2019-06-01T15:42:55.460Z,12.58
2019-06-01T15:45:23.678Z,13.78
2019-06-01T15:47:51.887Z,13.78
2019-06-01T15:50:20.134Z,10.65
2019-06-01T15:52:48.352Z,10.45
2019-06-01T15:55:16.558Z,9.15
2019-06-01T15:57:44.775Z,10.70
2019-06-01T16:00:13.092Z,10.15
2019-06-01T16:02:41.418Z,8.60
2019-06-01T16:05:09.609Z,9.33
2019-06-01T16:07:37.820Z,9.93
2019-06-01T16:10:08.417Z,10.40
2019-06-01T16:12:36.883Z,9.67
2019-06-01T16:15:07.410Z,8.98
2019-06-01T16:17:35.616Z,12.60
2019-06-01T16:20:05.960Z,10.13
2019-06-01T16:22:34.185Z,8.35
2019-06-01T16:25:02.610Z,7.72
2019-06-01T16:27:30.938Z,9.68
2019-06-01T16:30:00.167Z,7.78
2019-06-01T16:32:29.143Z,8.55
2019-06-01T16:34:58.524Z,9.10
2019-06-01T16:37:27.104Z,11.70
2019-06-01T16:40:01.644Z,11.28
2019-06-01T16:42:25.260Z,11.30
2019-06-01T16:44:53.482Z,8.30
2019-06-01T16:47:21.743Z,10.63
2019-06-01T16:49:50.035Z,9.03
2019-06-01T16:52:18.316Z,8.08
2019-06-01T16:54:46.531Z,8.10
2019-06-01T16:57:14.736Z,9.20
2019-06-01T16:59:42.992Z,10.23
2019-06-01T17:02:11.264Z,10.33
2019-06-01T17:04:39.485Z,9.95
2019-06-01T17:07:08.847Z,10.30
2019-06-01T17:09:37.196Z,10.40
2019-06-01T17:12:05.419Z,10.13
2019-06-01T17:14:33.648Z,10.53
2019-06-01T17:17:03.125Z,17.65
2019-06-01T17:19:31.459Z,19.27
2019-06-01T17:21:59.690Z,13.38
2019-06-01T17:24:27.949Z,15.37
2019-06-01T17:26:56.170Z,13.22
2019-06-01T17:29:24.371Z,12.43
2019-06-01T17:31:54.746Z,10.40
2019-06-01T17:34:22.735Z,10.23
2019-06-01T17:36:50.877Z,11.40
2019-06-01T17:39:19.095Z,9.65
2019-06-01T17:41:47.310Z,10.53
2019-06-01T17:44:15.595Z,10.30
2019-06-01T17:46:53.582Z,9.30
2019-06-01T17:49:13.832Z,6.75
2019-06-01T17:51:42.031Z,7.53
2019-06-01T17:54:10.271Z,10.60
2019-06-01T17:56:38.470Z,9.23
2019-06-01T17:59:07.533Z,8.95
2019-06-01T18:01:35.766Z,9.98
2019-06-01T18:04:03.962Z,7.97
2019-06-01T18:06:32.255Z,7.87
2019-06-01T18:09:01.864Z,10.45
2019-06-01T18:11:30.176Z,9.20
2019-06-01T18:13:58.374Z,8.38
2019-06-01T18:16:26.573Z,12.35
2019-06-01T18:18:54.796Z,12.25
2019-06-01T18:21:23.010Z,8.63
2019-06-01T18:23:51.217Z,13.03
2019-06-01T18:26:19.481Z,7.15
2019-06-01T18:28:51.221Z,6.10
2019-06-01T18:31:19.450Z,6.65
2019-06-01T18:33:47.653Z,8.10
2019-06-01T18:36:15.855Z,6.47
2019-06-01T18:38:44.062Z,6.92
2019-06-01T18:41:18.278Z,7.53
2019-06-01T18:43:42.201Z,8.23
2019-06-01T18:46:10.401Z,6.05
2019-06-01T18:48:38.615Z,7.58
2019-06-01T18:51:08.149Z,6.78
2019-06-01T18:53:36.392Z,5.47
2019-06-01T18:56:05.908Z,6.67
2019-06-01T18:58:34.281Z,5.90
2019-06-01T19:01:02.635Z,6.60
2019-06-01T19:03:30.850Z,6.33
2019-06-01T19:05:59.058Z,5.47
2019-06-01T19:08:27.303Z,7.12
2019-06-01T19:10:55.534Z,9.68
2019-06-01T19:13:23.745Z,6.33
2019-06-01T19:15:52.061Z,7.65
2019-06-01T19:18:20.309Z,6.92
2019-06-01T19:20:48.510Z,6.30
2019-06-01T19:23:21.627Z,6.25
2019-06-01T19:25:46.799Z,7.80
2019-06-01T19:28:15.341Z,7.47
2019-06-01T19:30:43.784Z,7.25
2019-06-01T19:33:15.525Z,21.87
2019-06-01T19:35:41.949Z,22.25
2019-06-01T19:38:11.475Z,26.97
2019-06-01T19:40:40.478Z,25.62
2019-06-01T19:43:09.481Z,18.77
2019-06-01T19:45:37.734Z,19.52
2019-06-01T19:48:06.314Z,13.70
2019-06-01T19:50:34.601Z,12.10
2019-06-01T19:53:02.901Z,11.33
2019-06-01T19:55:31.069Z,10.48
2019-06-01T19:57:59.301Z,7.35
2019-06-01T20:00:27.493Z,5.45
2019-06-01T20:02:55.710Z,7.35
2019-06-01T20:05:23.901Z,6.45
2019-06-01T20:07:52.142Z,6.97
2019-06-01T20:10:20.409Z,8.53
2019-06-01T20:12:48.636Z,6.75
2019-06-01T20:15:17.477Z,11.97
2019-06-01T20:17:45.773Z,13.50
2019-06-01T20:20:14.774Z,9.67
2019-06-01T20:22:42.950Z,14.70
2019-06-01T20:25:11.513Z,8.53
2019-06-01T20:27:39.625Z,7.95
2019-06-01T20:30:07.930Z,8.57
2019-06-01T20:32:36.128Z,9.33
2019-06-01T20:35:05.230Z,8.53
2019-06-01T20:37:33.432Z,5.75
2019-06-01T20:40:01.665Z,6.85
2019-06-01T20:42:32.771Z,5.83
2019-06-01T20:44:59.808Z,5.53
2019-06-01T20:47:28.021Z,5.28
2019-06-01T20:49:56.224Z,6.28
2019-06-01T20:52:24.442Z,4.95
2019-06-01T20:54:52.661Z,6.37
2019-06-01T20:57:21.506Z,8.68
2019-06-01T20:59:49.736Z,6.62
2019-06-01T21:02:18.057Z,5.23
2019-06-01T21:04:46.317Z,5.92
2019-06-01T21:07:15.649Z,5.35
2019-06-01T21:09:44.022Z,6.42
2019-06-01T21:12:12.237Z,6.08
2019-06-01T21:14:43.279Z,5.87
2019-06-01T21:17:11.484Z,6.57
2019-06-01T21:19:39.842Z,7.17
2019-06-01T21:22:08.035Z,6.35
2019-06-01T21:24:36.243Z,5.10
2019-06-01T21:27:04.450Z,7.92
2019-06-01T21:29:32.664Z,5.92
2019-06-01T21:32:00.965Z,5.92
2019-06-01T21:34:29.235Z,4.83
2019-06-01T21:36:57.407Z,5.80
2019-06-01T21:39:25.625Z,7.05
2019-06-01T21:41:53.845Z,6.72
2019-06-01T21:44:22.041Z,7.58
2019-06-01T21:46:50.437Z,6.83
2019-06-01T21:49:19.783Z,5.58
2019-06-01T21:51:48.658Z,6.45
2019-06-01T21:54:18.004Z,7.62
2019-06-01T21:56:46.343Z,8.70
2019-06-01T21:59:14.554Z,7.50
2019-06-01T22:01:42.781Z,7.10
2019-06-01T22:04:11.046Z,7.30
2019-06-01T22:06:39.284Z,5.45
2019-06-01T22:09:07.485Z,5.67
2019-06-01T22:11:35.704Z,7.65
2019-06-01T22:14:04.078Z,6.97
2019-06-01T22:16:32.327Z,7.05
2019-06-01T22:19:00.683Z,7.03
2019-06-01T22:21:28.886Z,7.72
2019-06-01T22:23:57.084Z,7.03
2019-06-01T22:26:26.369Z,8.63
2019-06-01T22:28:54.583Z,6.72
2019-06-01T22:31:22.785Z,7.03
2019-06-01T22:33:51.001Z,7.70
2019-06-01T22:36:20.465Z,8.23
2019-06-01T22:38:48.729Z,7.62
2019-06-01T22:41:16.963Z,5.37
2019-06-01T22:43:46.719Z,6.37
2019-06-01T22:46:15.092Z,6.10
2019-06-01T22:48:43.326Z,5.10
2019-06-01T22:51:11.534Z,4.42
2019-06-01T22:53:39.757Z,5.15
2019-06-01T22:56:07.956Z,5.47
2019-06-01T22:58:36.161Z,4.60
2019-06-01T23:01:04.374Z,8.10
2019-06-01T23:03:32.611Z,5.60
2019-06-01T23:06:00.833Z,6.78
2019-06-01T23:08:29.475Z,6.12
2019-06-01T23:10:57.746Z,7.40
2019-06-01T23:13:26.223Z,5.62
2019-06-01T23:15:54.571Z,6.30
2019-06-01T23:18:23.597Z,5.42
2019-06-01T23:20:51.855Z,6.23
2019-06-01T23:23:20.116Z,7.10
2019-06-01T23:25:48.316Z,7.33
2019-06-01T23:28:16.516Z,6.08
2019-06-01T23:30:44.722Z,5.42
2019-06-01T23:33:12.932Z,4.03
2019-06-01T23:35:41.167Z,4.80
2019-06-01T23:38:09.373Z,5.17
2019-06-01T23:40:37.621Z,7.28
2019-06-01T23:43:05.814Z,6.22
2019-06-01T23:45:34.081Z,7.05
2019-06-01T23:48:02.310Z,5.58
2019-06-01T23:50:30.510Z,4.08
2019-06-01T23:53:12.795Z,5.37
2019-06-01T23:55:29.848Z,5.28
2019-06-01T23:57:58.130Z,4.90
